Time;durP1;ratioP1;P1;durP2;ratioP2;P2;SDS_P1;SDS_P2;PMS_P1;PMS_P2;Temp;Humidity;BMP_temperature;BMP_pressure;BME280_temperature;BME280_humidity;BME280_pressure;Samples;Min_cycle;Max_cycle;Signal;HPM_P1;HPM_P2
2022/08/02 00:00:14;;;;;;;7.07;4.40;;;;;;;17.00;62.52;101821.03;4993627;28;20477;-59
2022/08/02 00:02:44;;;;;;;6.57;4.18;;;;;;;17.01;62.50;101814.91;4993883;28;20402;-59
2022/08/02 00:05:10;;;;;;;6.68;4.00;;;;;;;17.00;62.22;101806.13;4992607;28;20041;-60
2022/08/02 00:07:35;;;;;;;5.43;3.97;;;;;;;16.97;62.56;101807.84;4993650;28;20034;-65
2022/08/02 00:10:01;;;;;;;7.55;4.07;;;;;;;16.94;62.59;101802.53;4993593;28;20039;-65
2022/08/02 00:12:26;;;;;;;7.63;4.15;;;;;;;16.90;62.72;101803.34;4993960;28;20029;-65
2022/08/02 00:14:51;;;;;;;6.93;4.18;;;;;;;16.86;62.68;101800.66;4993713;28;20034;-65
2022/08/02 00:17:17;;;;;;;6.65;4.18;;;;;;;16.88;62.49;101805.97;4993719;28;20033;-65
2022/08/02 00:19:43;;;;;;;6.63;4.18;;;;;;;16.85;62.64;101809.41;4991964;28;20394;-65
2022/08/02 00:22:08;;;;;;;8.73;3.78;;;;;;;16.83;62.75;101812.91;4993679;28;20117;-65
2022/08/02 00:24:33;;;;;;;6.07;4.10;;;;;;;16.85;63.09;101814.66;4993588;28;20628;-65
2022/08/02 00:26:59;;;;;;;7.03;4.20;;;;;;;16.80;63.10;101813.75;4993311;28;20038;-65
2022/08/02 00:29:24;;;;;;;7.22;4.38;;;;;;;16.79;63.00;101814.59;4992419;28;20058;-64
2022/08/02 00:31:49;;;;;;;7.43;4.20;;;;;;;16.75;62.54;101814.53;4993335;28;20034;-65
2022/08/02 00:34:15;;;;;;;6.25;4.10;;;;;;;16.75;62.79;101820.69;4993061;28;20378;-65
2022/08/02 00:36:40;;;;;;;6.55;4.50;;;;;;;16.74;62.89;101818.91;4993102;28;20038;-65
2022/08/02 00:39:05;;;;;;;7.05;4.35;;;;;;;16.72;62.79;101820.63;4993299;28;20105;-65
2022/08/02 00:41:30;;;;;;;7.18;4.22;;;;;;;16.70;62.97;101811.84;4992951;28;20126;-65
2022/08/02 00:43:56;;;;;;;7.10;4.20;;;;;;;16.69;63.95;101810.06;4992307;28;20046;-65
2022/08/02 00:46:21;;;;;;;5.97;4.25;;;;;;;16.70;63.49;101811.84;4992094;28;20034;-65
2022/08/02 00:48:47;;;;;;;6.65;4.25;;;;;;;16.64;63.43;101812.66;4993052;28;20033;-65
2022/08/02 00:51:14;;;;;;;6.72;4.40;;;;;;;16.62;63.48;101808.22;4992091;28;20023;-65
2022/08/02 00:53:40;;;;;;;9.00;4.20;;;;;;;16.61;63.71;101795.91;4992873;28;20034;-65
2022/08/02 00:56:05;;;;;;;7.32;4.45;;;;;;;16.58;63.54;101795.88;4992064;28;20109;-65
2022/08/02 00:58:30;;;;;;;7.88;4.40;;;;;;;16.58;62.90;101787.97;4992233;28;20026;-65
2022/08/02 01:01:00;;;;;;;6.10;4.15;;;;;;;16.56;63.27;101789.72;4992965;28;20026;-65
2022/08/02 01:03:26;;;;;;;6.50;4.20;;;;;;;16.54;62.98;101786.16;4993071;28;20085;-65
2022/08/02 01:05:51;;;;;;;7.20;3.83;;;;;;;16.54;62.86;101786.16;4975203;28;20442;-65
2022/08/02 01:08:16;;;;;;;6.28;3.60;;;;;;;16.46;62.25;101786.94;4991938;28;20037;-65
2022/08/02 01:10:42;;;;;;;6.75;3.33;;;;;;;16.45;62.44;101784.28;4990862;28;20089;-65
2022/08/02 01:13:07;;;;;;;6.28;3.63;;;;;;;16.42;62.69;101785.13;4974870;28;20018;-65
2022/08/02 01:15:39;;;;;;;6.28;3.63;;;;;;;16.40;62.26;101781.59;4992161;28;20033;-65
2022/08/02 01:18:12;;;;;;;5.07;3.33;;;;;;;16.40;62.74;101786.84;4992386;28;20037;-65
2022/08/02 01:20:56;;;;;;;5.85;3.53;;;;;;;16.40;62.85;101786.84;4992603;28;20037;-65
2022/08/02 01:23:46;;;;;;;5.97;3.75;;;;;;;16.38;62.70;101787.69;4991350;28;20030;-65
2022/08/02 01:26:41;;;;;;;7.03;3.75;;;;;;;16.35;62.55;101791.16;4992251;28;20032;-65
2022/08/02 01:29:20;;;;;;;6.38;3.47;;;;;;;16.30;62.13;101790.22;4992457;28;20022;-65
2022/08/02 01:32:01;;;;;;;6.75;3.67;;;;;;;16.28;62.46;101787.56;4992396;28;20022;-65
2022/08/02 01:34:26;;;;;;;5.18;3.20;;;;;;;16.26;62.16;101784.00;4991023;28;20498;-65
2022/08/02 01:37:07;;;;;;;5.80;3.20;;;;;;;16.25;62.64;101784.00;4991999;28;20152;-65
2022/08/02 01:39:34;;;;;;;4.50;3.17;;;;;;;16.24;62.58;101784.88;4991935;28;20274;-65
2022/08/02 01:42:01;;;;;;;5.57;2.80;;;;;;;16.24;62.81;101779.63;4992000;28;20213;-65
2022/08/02 01:44:32;;;;;;;4.75;3.08;;;;;;;16.22;62.73;101781.31;4992061;28;20244;-65
2022/08/02 01:47:01;;;;;;;5.15;2.97;;;;;;;16.24;62.88;101784.88;4989969;28;20042;-65
2022/08/02 01:49:29;;;;;;;4.22;2.83;;;;;;;16.24;62.95;101779.63;4991656;28;20033;-65
2022/08/02 01:54:43;;;;;;;6.18;2.90;;;;;;;16.22;63.01;101774.34;4992257;28;20323;-65
2022/08/02 01:57:10;;;;;;;6.10;2.95;;;;;;;16.19;63.15;101768.13;4992014;28;20030;-65
2022/08/02 01:59:37;;;;;;;5.55;2.70;;;;;;;16.13;63.05;101761.94;4973263;28;20062;-65
2022/08/02 02:02:06;;;;;;;7.07;2.88;;;;;;;16.13;62.79;101759.31;4991031;28;20172;-65
2022/08/02 02:04:34;;;;;;;6.53;3.05;;;;;;;16.11;62.33;101758.38;4991758;28;20018;-65
2022/08/02 02:07:01;;;;;;;6.20;2.90;;;;;;;16.09;62.41;101765.38;4991654;28;20034;-65
2022/08/02 02:09:30;;;;;;;6.68;2.88;;;;;;;16.07;62.67;101759.19;4991410;28;20053;-65
2022/08/02 02:11:58;;;;;;;5.70;2.70;;;;;;;16.05;62.53;101757.38;4991655;28;20117;-65
2022/08/02 02:14:26;;;;;;;5.50;2.97;;;;;;;16.03;62.87;101753.88;4972530;28;20065;-66
2022/08/02 02:16:52;;;;;;;6.60;3.05;;;;;;;16.01;62.56;101745.09;4991378;28;20034;-65
2022/08/02 02:19:19;;;;;;;7.50;2.90;;;;;;;15.98;62.99;101745.91;4991281;28;20041;-65
2022/08/02 02:21:45;;;;;;;7.13;2.90;;;;;;;15.95;62.98;101743.25;4991570;28;20058;-65
2022/08/02 02:24:10;;;;;;;6.38;2.80;;;;;;;15.94;63.15;101741.47;4991215;28;20073;-65
2022/08/02 02:26:37;;;;;;;6.85;3.13;;;;;;;15.92;63.19;101728.28;4991438;28;20504;-65
2022/08/02 02:29:04;;;;;;;7.28;3.20;;;;;;;15.90;63.07;101729.13;4990106;28;20494;-64
2022/08/02 02:31:36;;;;;;;6.05;3.10;;;;;;;15.88;63.35;101728.22;4990496;28;20124;-64
2022/08/02 02:34:14;;;;;;;8.20;3.50;;;;;;;15.84;63.42;101726.41;4991093;28;20030;-65
2022/08/02 02:36:46;;;;;;;5.70;3.15;;;;;;;15.82;63.77;101724.63;4991101;28;20023;-65
2022/08/02 02:39:14;;;;;;;6.20;3.38;;;;;;;15.81;63.83;101728.13;4972603;28;20406;-65
2022/08/02 02:41:42;;;;;;;5.18;2.92;;;;;;;15.76;63.95;101724.50;4990826;28;20046;-65
2022/08/02 02:44:12;;;;;;;6.65;3.25;;;;;;;15.75;63.97;101727.09;4989970;28;20482;-65
2022/08/02 02:46:39;;;;;;;7.25;3.72;;;;;;;15.74;63.99;101730.59;4985360;28;20034;-65
2022/08/02 02:49:08;;;;;;;7.47;3.58;;;;;;;15.73;63.62;101732.34;4990148;28;20597;-65
2022/08/02 02:51:34;;;;;;;5.82;3.45;;;;;;;15.73;64.18;101731.44;4990076;28;20190;-65
2022/08/02 02:54:01;;;;;;;8.27;3.90;;;;;;;15.68;63.88;101726.09;4990084;28;20221;-65
2022/08/02 02:56:27;;;;;;;7.93;4.25;;;;;;;15.66;64.44;101733.09;4990967;28;20057;-65
2022/08/02 02:58:53;;;;;;;6.82;3.78;;;;;;;15.65;64.42;101726.06;4990841;28;20057;-65
2022/08/02 03:01:31;;;;;;;6.88;4.07;;;;;;;15.62;64.68;101732.16;4990699;28;20018;-65
2022/08/02 03:04:01;;;;;;;6.75;3.95;;;;;;;15.61;64.29;101734.75;4989680;28;20400;-65
2022/08/02 03:06:27;;;;;;;6.97;4.13;;;;;;;15.59;64.71;101732.09;4989691;28;20026;-65
2022/08/02 03:08:53;;;;;;;8.90;4.35;;;;;;;15.58;64.58;101721.56;4990529;28;20018;-65
2022/08/02 03:11:19;;;;;;;9.13;4.05;;;;;;;15.55;65.02;101718.88;4990230;28;20097;-65
2022/08/02 03:13:45;;;;;;;6.53;4.03;;;;;;;15.55;65.10;101719.75;4990642;28;20034;-65
2022/08/02 03:16:11;;;;;;;7.13;4.13;;;;;;;15.54;65.49;101718.00;4995931;28;20030;-65
2022/08/02 03:18:39;;;;;;;8.68;4.00;;;;;;;15.53;65.72;101716.22;4996150;28;20458;-65
2022/08/02 03:21:07;;;;;;;7.28;3.65;;;;;;;15.53;65.61;101723.25;4996664;28;20477;-65
2022/08/02 03:23:33;;;;;;;7.35;4.05;;;;;;;15.52;65.67;101718.84;4996868;28;20030;-65
2022/08/02 03:26:00;;;;;;;6.80;3.97;;;;;;;15.51;65.94;101717.06;4997483;28;20029;-64
2022/08/02 03:28:25;;;;;;;9.38;4.38;;;;;;;15.47;65.89;101719.63;4996924;28;20037;-65
2022/08/02 03:30:51;;;;;;;7.93;4.20;;;;;;;15.48;66.22;101729.28;4996843;28;20022;-64
2022/08/02 03:33:18;;;;;;;7.63;4.28;;;;;;;15.46;66.19;101723.13;4995625;28;20038;-65
2022/08/02 03:35:46;;;;;;;9.75;4.30;;;;;;;15.44;66.45;101727.47;4996962;28;20553;-65
2022/08/02 03:38:14;;;;;;;6.88;3.95;;;;;;;15.45;66.16;101720.47;4979276;28;20101;-65
2022/08/02 03:40:42;;;;;;;8.10;4.13;;;;;;;15.43;66.24;101715.19;4996419;28;20054;-65
2022/08/02 03:43:08;;;;;;;6.55;4.20;;;;;;;15.41;66.16;101714.28;4995980;28;20038;-65
2022/08/02 03:45:34;;;;;;;7.80;4.25;;;;;;;15.41;66.30;101708.13;4996940;28;20054;-65
2022/08/02 03:48:00;;;;;;;8.35;4.03;;;;;;;15.40;66.33;101703.75;4992942;28;20023;-65
2022/08/02 03:50:26;;;;;;;10.18;3.97;;;;;;;15.39;66.34;101704.59;4969752;28;20379;-65
2022/08/02 03:52:51;;;;;;;6.95;3.88;;;;;;;15.38;66.96;101703.72;4996797;28;20409;-65
2022/08/02 03:55:16;;;;;;;8.02;4.55;;;;;;;15.37;67.32;101695.84;4995754;28;20034;-64
2022/08/02 03:57:43;;;;;;;7.40;3.90;;;;;;;15.33;66.86;101702.75;4974993;28;20064;-65
2022/08/02 04:00:10;;;;;;;7.18;4.30;;;;;;;15.31;66.95;101688.72;4996751;28;20037;-65
2022/08/02 04:02:36;;;;;;;7.68;4.00;;;;;;;15.30;67.21;101686.94;4996692;28;20274;-65
2022/08/02 04:05:02;;;;;;;8.05;3.92;;;;;;;15.27;67.11;101693.03;4996681;28;20349;-65
2022/08/02 04:07:27;;;;;;;6.38;3.90;;;;;;;15.24;67.44;101689.47;4995755;28;20030;-65
2022/08/02 04:09:53;;;;;;;8.88;4.18;;;;;;;15.23;67.28;101683.31;4995729;28;20185;-65
2022/08/02 04:12:18;;;;;;;7.55;4.07;;;;;;;15.25;67.12;101680.72;4996576;28;20474;-65
2022/08/02 04:14:44;;;;;;;6.65;4.07;;;;;;;15.23;67.41;101685.06;4996519;28;20041;-65
2022/08/02 04:17:12;;;;;;;7.25;3.88;;;;;;;15.22;67.87;101686.81;4996374;28;20609;-65
2022/08/02 04:19:52;;;;;;;12.57;4.38;;;;;;;15.22;67.31;101686.81;4996606;28;20057;-65
2022/08/02 04:22:24;;;;;;;7.53;3.67;;;;;;;15.22;67.78;101683.28;4995563;28;20037;-65
2022/08/02 04:24:53;;;;;;;6.07;4.00;;;;;;;15.23;67.99;101687.69;4995899;28;20030;-65
2022/08/02 04:27:19;;;;;;;8.05;4.00;;;;;;;15.23;68.13;101690.31;4992929;28;20053;-65
2022/08/02 04:29:46;;;;;;;7.45;4.03;;;;;;;15.22;67.62;101689.44;4993405;28;20026;-65
2022/08/02 04:32:12;;;;;;;6.72;4.00;;;;;;;15.22;68.08;101683.28;4993012;28;20509;-65
2022/08/02 04:34:37;;;;;;;8.90;5.10;;;;;;;15.21;68.02;101686.78;4993390;28;20030;-65
2022/08/02 04:37:03;;;;;;;8.93;4.10;;;;;;;15.20;68.32;101688.50;4992324;28;20026;-65
2022/08/02 04:39:28;;;;;;;7.93;4.70;;;;;;;15.19;68.56;101699.88;4993125;28;20106;-65
2022/08/02 04:41:53;;;;;;;8.02;4.70;;;;;;;15.17;68.60;101698.97;4993267;28;20038;-65
2022/08/02 04:44:19;;;;;;;9.27;5.10;;;;;;;15.16;68.88;101694.56;4992875;28;20037;-65
2022/08/02 04:46:44;;;;;;;11.43;5.03;;;;;;;15.18;68.45;101686.72;4993519;28;20027;-65
2022/08/02 04:49:10;;;;;;;8.63;4.70;;;;;;;15.18;68.63;101690.25;4992733;28;20046;-65
2022/08/02 04:51:38;;;;;;;10.55;4.93;;;;;;;15.18;68.77;101685.00;4991936;28;20041;-65
2022/08/02 04:54:03;;;;;;;9.93;5.10;;;;;;;15.19;69.02;101685.88;4992861;28;20034;-65
2022/08/02 04:56:29;;;;;;;9.18;5.03;;;;;;;15.19;69.65;101684.13;4992784;28;20029;-65
2022/08/02 04:58:54;;;;;;;8.07;4.72;;;;;;;15.20;69.53;101691.16;4993276;28;20408;-66
2022/08/02 05:01:20;;;;;;;8.77;4.95;;;;;;;15.22;69.49;101688.53;4990772;28;20022;-66
2022/08/02 05:03:45;;;;;;;9.00;4.82;;;;;;;15.21;69.33;101681.53;4990648;28;20446;-65
2022/08/02 05:06:10;;;;;;;9.20;4.78;;;;;;;15.21;69.38;101678.91;4990320;28;20045;-65
2022/08/02 05:08:36;;;;;;;7.80;4.85;;;;;;;15.22;68.99;101680.66;4991810;28;20033;-65
2022/08/02 05:11:01;;;;;;;9.25;5.07;;;;;;;15.23;70.20;101685.06;4992416;28;20038;-65
2022/08/02 05:13:26;;;;;;;7.88;5.07;;;;;;;15.24;70.48;101686.84;4991969;28;20026;-65
2022/08/02 05:15:52;;;;;;;10.30;5.38;;;;;;;15.22;70.76;101692.06;4990150;28;20042;-65
2022/08/02 05:18:17;;;;;;;8.90;5.32;;;;;;;15.24;70.49;101678.97;4990312;28;20031;-65
2022/08/02 05:20:43;;;;;;;11.38;5.20;;;;;;;15.24;70.81;101681.59;4992060;28;20030;-65
2022/08/02 05:23:08;;;;;;;8.07;5.20;;;;;;;15.25;70.62;101678.09;4992107;28;20030;-65
2022/08/02 05:25:33;;;;;;;9.57;5.40;;;;;;;15.25;70.89;101672.84;4990328;28;20078;-66
2022/08/02 05:27:58;;;;;;;10.13;6.30;;;;;;;15.26;71.46;101674.63;4990674;28;20030;-65
2022/08/02 05:30:24;;;;;;;8.93;6.18;;;;;;;15.29;70.64;101677.28;4987857;28;20050;-65
2022/08/02 05:32:52;;;;;;;7.82;5.95;;;;;;;15.29;71.29;101669.41;4991804;28;20030;-65
2022/08/02 05:35:23;;;;;;;8.25;5.90;;;;;;;15.29;71.36;101665.06;4990912;28;20033;-65
2022/08/02 05:37:49;;;;;;;11.35;6.18;;;;;;;15.31;71.74;101662.47;4991276;28;20030;-65
2022/08/02 05:40:16;;;;;;;11.68;6.40;;;;;;;15.33;72.53;101652.84;4989932;28;20066;-65
2022/08/02 05:42:42;;;;;;;10.95;6.93;;;;;;;15.35;73.19;101660.75;4990154;28;20022;-65
2022/08/02 05:45:08;;;;;;;13.65;7.20;;;;;;;15.38;73.48;101669.59;4991073;28;20337;-65
2022/08/02 05:47:34;;;;;;;8.70;6.80;;;;;;;15.40;72.92;101662.63;4991282;28;20337;-65
2022/08/02 05:49:59;;;;;;;9.73;6.55;;;;;;;15.43;72.97;101662.66;4990528;28;20054;-65
2022/08/02 05:52:32;;;;;;;12.82;7.75;;;;;;;15.47;74.01;101666.25;4991163;28;20041;-65
2022/08/02 05:55:06;;;;;;;10.90;8.45;;;;;;;15.51;73.69;101673.31;4990644;28;20109;-65
2022/08/02 05:58:05;;;;;;;10.02;7.88;;;;;;;15.54;74.07;101673.34;4988296;28;20026;-65
2022/08/02 06:00:32;;;;;;;10.88;8.32;;;;;;;15.60;75.16;101678.72;4990994;28;20027;-65
2022/08/02 06:03:15;;;;;;;11.35;7.97;;;;;;;15.65;75.61;101686.66;4989597;28;20037;-65
2022/08/02 06:06:03;;;;;;;10.23;7.50;;;;;;;15.71;75.21;101691.13;4990944;28;20126;-65
2022/08/02 06:08:36;;;;;;;17.88;8.30;;;;;;;15.80;77.03;101694.81;4989032;28;20030;-65
2022/08/02 06:11:05;;;;;;;12.45;8.82;;;;;;;15.89;77.95;101687.91;4989619;28;20133;-65
2022/08/02 06:13:31;;;;;;;12.20;8.00;;;;;;;15.96;76.66;101695.03;4991440;28;20466;-65
2022/08/02 06:15:59;;;;;;;14.45;8.85;;;;;;;16.05;78.76;101699.56;4988639;28;20034;-65
2022/08/02 06:18:28;;;;;;;15.05;9.32;;;;;;;16.11;78.11;101690.03;4973962;28;20037;-65
2022/08/02 06:20:56;;;;;;;10.82;8.77;;;;;;;16.21;78.36;101695.44;4989598;28;20026;-65
2022/08/02 06:23:22;;;;;;;13.55;9.85;;;;;;;16.26;78.52;101697.22;4991399;28;20393;-65
2022/08/02 06:25:49;;;;;;;13.40;9.45;;;;;;;16.33;77.41;101695.56;4986171;28;20494;-65
2022/08/02 06:28:15;;;;;;;12.75;10.18;;;;;;;16.43;79.24;101692.19;4976906;28;20018;-65
2022/08/02 06:30:43;;;;;;;13.13;9.63;;;;;;;16.51;77.59;101695.81;4988494;28;20038;-65
2022/08/02 06:33:08;;;;;;;14.15;9.52;;;;;;;16.59;78.13;101689.78;4971513;28;20034;-65
2022/08/02 06:35:58;;;;;;;12.63;9.95;;;;;;;16.68;76.72;101685.50;4990657;28;20022;-65
2022/08/02 06:38:27;;;;;;;13.27;9.70;;;;;;;16.80;78.16;101675.97;4989958;28;20038;-65
2022/08/02 06:41:01;;;;;;;12.80;10.20;;;;;;;16.91;77.64;101674.38;4987347;28;20070;-65
2022/08/02 06:43:33;;;;;;;12.02;9.15;;;;;;;17.00;76.49;101679.75;4989319;28;20054;-65
2022/08/02 06:45:59;;;;;;;14.73;9.68;;;;;;;17.10;76.84;101672.81;4989940;28;20018;-65
2022/08/02 06:48:24;;;;;;;12.63;9.50;;;;;;;17.19;76.81;101670.28;4990181;28;20022;-65
2022/08/02 06:50:49;;;;;;;14.98;10.95;;;;;;;17.29;76.32;101671.25;4988040;28;20436;-65
2022/08/02 06:53:14;;;;;;;13.70;10.75;;;;;;;17.40;76.77;101675.75;4988732;28;20097;-65
2022/08/02 06:55:40;;;;;;;14.23;10.65;;;;;;;17.48;77.09;101674.94;4990188;28;20030;-65
2022/08/02 06:58:05;;;;;;;15.02;11.40;;;;;;;17.58;76.77;101673.22;4990287;28;20266;-65
2022/08/02 07:00:31;;;;;;;15.60;12.05;;;;;;;17.66;76.83;101670.69;4988646;28;20014;-65
2022/08/02 07:02:56;;;;;;;14.30;11.00;;;;;;;17.75;76.49;101669.88;4988775;28;20042;-65
2022/08/02 07:05:22;;;;;;;13.95;11.48;;;;;;;17.85;77.38;101675.19;4988967;28;20358;-65
2022/08/02 07:07:47;;;;;;;17.40;11.88;;;;;;;17.94;76.29;101671.78;4988769;28;20120;-65
2022/08/02 07:10:13;;;;;;;19.98;12.60;;;;;;;18.04;76.50;101673.59;4988494;28;21886;-65
2022/08/02 07:12:39;;;;;;;17.33;12.20;;;;;;;18.14;76.05;101677.16;4990015;28;20128;-65
2022/08/02 07:15:06;;;;;;;15.30;11.65;;;;;;;18.22;75.93;101685.16;4990078;28;20482;-65
2022/08/02 07:17:33;;;;;;;20.40;11.95;;;;;;;18.36;76.48;101688.69;4987529;28;20497;-65
2022/08/02 07:19:59;;;;;;;15.18;11.50;;;;;;;18.47;76.68;101675.56;4988745;28;20540;-65
2022/08/02 07:22:25;;;;;;;16.92;10.85;;;;;;;18.58;75.79;101684.44;4989339;28;20058;-65
2022/08/02 07:24:51;;;;;;;17.27;11.07;;;;;;;18.67;75.60;101665.09;4987885;28;20040;-65
2022/08/02 07:27:18;;;;;;;14.80;10.38;;;;;;;18.77;74.97;101663.38;4989429;28;20259;-65
2022/08/02 07:29:43;;;;;;;16.88;10.77;;;;;;;18.85;74.68;101668.66;4971554;28;20084;-65
2022/08/02 07:32:09;;;;;;;15.07;11.23;;;;;;;18.91;74.80;101666.94;4986367;28;20039;-65
2022/08/02 07:34:34;;;;;;;13.70;9.80;;;;;;;19.01;74.74;101661.69;4989759;28;20033;-65
2022/08/02 07:36:59;;;;;;;14.73;9.23;;;;;;;19.05;73.74;101668.75;4970361;28;20579;-65
2022/08/02 07:39:24;;;;;;;14.52;9.55;;;;;;;19.12;74.13;101659.94;4970247;28;20033;-65
2022/08/02 07:41:51;;;;;;;12.43;8.60;;;;;;;19.19;73.97;101647.59;4989932;28;20026;-65
2022/08/02 07:44:17;;;;;;;11.80;8.10;;;;;;;19.27;73.45;101657.31;4989030;28;20132;-65
2022/08/02 07:46:43;;;;;;;10.75;7.60;;;;;;;19.38;73.14;101653.78;4984942;28;20052;-65
2022/08/02 07:49:09;;;;;;;11.40;7.60;;;;;;;19.41;72.79;101653.81;4987730;28;20486;-67
2022/08/02 07:51:35;;;;;;;12.07;7.32;;;;;;;19.49;73.21;101659.94;4983472;28;20026;-65
2022/08/02 07:54:00;;;;;;;10.13;6.95;;;;;;;19.59;72.39;101659.06;4988878;28;20034;-65
2022/08/02 07:56:26;;;;;;;11.43;7.43;;;;;;;19.68;72.01;101665.22;4986083;28;20038;-65
2022/08/02 07:58:51;;;;;;;12.40;7.32;;;;;;;19.72;71.93;101665.22;4985769;28;20062;-65
2022/08/02 08:01:17;;;;;;;11.35;7.95;;;;;;;19.80;71.83;101663.47;4988102;28;20026;-66
2022/08/02 08:03:42;;;;;;;13.80;8.02;;;;;;;19.86;71.71;101670.53;4989268;28;20022;-65
2022/08/02 08:06:08;;;;;;;10.90;8.57;;;;;;;19.99;72.71;101658.16;4992372;28;20108;-65
2022/08/02 08:08:34;;;;;;;11.90;7.85;;;;;;;20.12;71.60;101664.31;4993935;28;20089;-65
2022/08/02 08:10:59;;;;;;;11.82;7.70;;;;;;;20.20;71.36;101657.19;4992359;28;20038;-66
2022/08/02 08:13:24;;;;;;;9.68;6.75;;;;;;;20.36;70.86;101657.16;4991996;28;20066;-65
2022/08/02 08:15:50;;;;;;;9.52;5.68;;;;;;;20.40;68.47;101657.13;4992008;28;20374;-65
2022/08/02 08:18:15;;;;;;;8.02;5.45;;;;;;;20.47;68.27;101660.66;4975143;28;20081;-66
2022/08/02 08:20:40;;;;;;;6.68;4.80;;;;;;;20.49;67.71;101658.84;4991220;28;20037;-65
2022/08/02 08:23:06;;;;;;;7.68;5.38;;;;;;;20.53;68.71;101660.59;4990396;28;20018;-65
2022/08/02 08:25:31;;;;;;;7.43;5.07;;;;;;;20.57;69.09;101659.72;4991789;28;20036;-65
2022/08/02 08:27:56;;;;;;;7.25;4.75;;;;;;;20.65;68.29;101649.97;4993511;28;20023;-65
2022/08/02 08:30:22;;;;;;;8.63;5.03;;;;;;;20.76;68.36;101647.28;4992266;28;20438;-65
2022/08/02 08:32:47;;;;;;;6.50;5.07;;;;;;;20.83;67.13;101646.34;4993392;28;20022;-65
2022/08/02 08:35:13;;;;;;;6.75;4.72;;;;;;;20.92;66.80;101642.75;4993140;28;20408;-65
2022/08/02 08:37:38;;;;;;;7.22;4.78;;;;;;;21.05;66.81;101634.75;4993271;28;20026;-66
2022/08/02 08:40:05;;;;;;;7.13;4.40;;;;;;;21.15;65.56;101639.09;4993146;28;20529;-65
2022/08/02 08:42:31;;;;;;;5.38;4.00;;;;;;;21.26;65.85;101639.88;4991690;28;20478;-65
2022/08/02 08:44:57;;;;;;;9.43;3.90;;;;;;;21.35;65.32;101645.09;4992143;28;20042;-66
2022/08/02 08:47:27;;;;;;;5.22;3.83;;;;;;;21.46;63.37;101642.34;4993104;28;20030;-65
2022/08/02 08:49:58;;;;;;;7.47;3.70;;;;;;;21.50;63.33;101653.81;4992788;28;20394;-65
2022/08/02 08:52:26;;;;;;;5.38;3.45;;;;;;;21.60;61.60;101650.22;4990450;28;20038;-65
2022/08/02 08:54:52;;;;;;;4.82;3.25;;;;;;;21.73;60.97;101655.41;4986169;28;20438;-65
2022/08/02 08:57:19;;;;;;;5.43;3.13;;;;;;;21.80;59.32;101650.03;4983939;28;20528;-65
2022/08/02 08:59:44;;;;;;;4.43;2.90;;;;;;;21.85;60.06;101648.19;4991566;28;20061;-66
2022/08/02 09:02:10;;;;;;;4.00;2.75;;;;;;;21.92;59.68;101651.66;4982863;28;20506;-65
2022/08/02 09:04:36;;;;;;;4.90;3.05;;;;;;;21.94;59.93;101644.56;4988090;28;20026;-66
2022/08/02 09:07:03;;;;;;;5.70;3.42;;;;;;;22.02;58.95;101647.13;4986260;28;20045;-65
2022/08/02 09:09:28;;;;;;;7.07;3.00;;;;;;;22.04;59.48;101658.59;4988850;28;20510;-65
2022/08/02 09:11:53;;;;;;;5.85;2.40;;;;;;;22.12;57.83;101651.44;4990448;28;20030;-66
2022/08/02 09:14:27;;;;;;;6.35;2.88;;;;;;;22.20;57.46;101660.19;4990645;28;20045;-66
2022/08/02 09:17:05;;;;;;;5.68;2.70;;;;;;;22.30;55.15;101652.13;4990153;28;20050;-66
2022/08/02 09:19:30;;;;;;;4.18;2.70;;;;;;;22.35;54.93;101652.97;4991310;28;20657;-66
2022/08/02 09:22:07;;;;;;;5.18;3.08;;;;;;;22.45;55.33;101645.75;4989605;28;20037;-66
2022/08/02 09:24:47;;;;;;;5.22;2.70;;;;;;;22.53;54.62;101642.09;4990373;28;20038;-66
2022/08/02 09:27:15;;;;;;;4.50;2.30;;;;;;;22.60;54.66;101644.69;4990226;28;20026;-66
2022/08/02 09:29:53;;;;;;;4.10;2.70;;;;;;;22.75;53.28;101645.34;4985141;28;20026;-65
2022/08/02 09:32:19;;;;;;;4.45;2.58;;;;;;;22.85;53.64;101638.09;4991979;28;20018;-66
2022/08/02 09:34:47;;;;;;;5.25;2.83;;;;;;;22.98;52.12;101638.78;4991128;28;20481;-66
2022/08/02 09:37:27;;;;;;;4.10;2.77;;;;;;;23.12;54.29;101641.28;4990080;28;20038;-65
2022/08/02 09:39:53;;;;;;;5.25;2.88;;;;;;;23.17;51.72;101639.41;4982190;28;20525;-66
2022/08/02 09:42:19;;;;;;;4.82;2.72;;;;;;;23.25;52.39;101639.31;4989232;28;20057;-66
2022/08/02 09:44:55;;;;;;;8.98;2.45;;;;;;;23.30;51.53;101641.88;4991375;28;20398;-66
2022/08/02 09:47:20;;;;;;;7.32;2.70;;;;;;;23.38;50.73;101646.16;4989395;28;20034;-66
2022/08/02 09:49:46;;;;;;;26.55;4.25;;;;;;;23.43;51.13;101639.00;4990915;28;20378;-66
2022/08/02 09:52:12;;;;;;;5.50;2.63;;;;;;;23.53;50.55;101641.50;4989298;28;20074;-66
2022/08/02 09:54:38;;;;;;;6.22;2.60;;;;;;;23.65;49.96;101641.28;4989358;28;20829;-66
2022/08/02 09:57:04;;;;;;;4.03;2.30;;;;;;;23.67;50.98;101642.13;4991280;28;20109;-66
2022/08/02 09:59:29;;;;;;;4.30;2.47;;;;;;;23.76;49.84;101641.06;4983025;28;20121;-66
2022/08/02 10:01:57;;;;;;;4.65;2.30;;;;;;;23.84;49.65;101635.59;4988453;28;20139;-66
2022/08/02 10:04:24;;;;;;;4.53;2.50;;;;;;;23.88;47.61;101645.31;4972316;28;20030;-65
2022/08/02 10:06:51;;;;;;;6.65;2.50;;;;;;;23.94;47.59;101642.53;4989981;28;20137;-66
2022/08/02 10:09:17;;;;;;;4.10;2.30;;;;;;;24.01;47.59;101633.50;4989239;28;20037;-66
2022/08/02 10:11:42;;;;;;;4.10;2.20;;;;;;;24.13;46.74;101648.38;4989309;28;20030;-66
2022/08/02 10:14:09;;;;;;;4.07;2.40;;;;;;;24.21;46.40;101642.88;4988844;28;20041;-66
2022/08/02 10:16:42;;;;;;;3.40;2.08;;;;;;;24.27;47.34;101634.75;4991312;28;20023;-66
2022/08/02 10:19:09;;;;;;;4.55;2.40;;;;;;;24.36;46.50;101644.34;4990619;28;20030;-66
2022/08/02 10:21:48;;;;;;;4.30;2.10;;;;;;;24.46;47.39;101635.25;4991524;28;20088;-66
2022/08/02 10:24:20;;;;;;;4.55;2.25;;;;;;;24.56;45.87;101623.47;4990666;28;20030;-66
2022/08/02 10:26:46;;;;;;;4.43;2.00;;;;;;;24.65;44.74;101630.41;4991219;28;20026;-66
2022/08/02 10:29:16;;;;;;;3.75;1.90;;;;;;;24.74;44.67;101630.22;4987037;28;20030;-65
2022/08/02 10:31:50;;;;;;;3.38;1.88;;;;;;;24.81;43.51;101623.84;4991236;28;20042;-66
2022/08/02 10:34:20;;;;;;;4.20;2.10;;;;;;;24.91;44.24;101615.59;4986685;28;20117;-66
2022/08/02 10:36:48;;;;;;;8.77;1.77;;;;;;;25.00;44.39;101613.59;4989008;28;20457;-65
2022/08/02 10:39:13;;;;;;;4.45;2.00;;;;;;;25.05;43.96;101617.94;4986489;28;20537;-65
2022/08/02 10:41:39;;;;;;;8.90;3.17;;;;;;;25.06;42.98;101620.56;4987763;28;20042;-66
2022/08/02 10:44:05;;;;;;;5.25;1.60;;;;;;;25.08;41.76;101625.88;4988200;28;20034;-67
2022/08/02 10:46:33;;;;;;;3.25;1.90;;;;;;;25.10;42.02;101610.69;4990624;28;20041;-66
2022/08/02 10:49:13;;;;;;;5.27;2.00;;;;;;;25.15;43.97;101614.13;4989844;28;20123;-66
2022/08/02 10:51:53;;;;;;;3.75;1.70;;;;;;;25.15;43.41;101619.47;4986442;28;20098;-67
2022/08/02 10:54:26;;;;;;;3.10;1.63;;;;;;;25.15;41.19;101623.00;4990150;28;20082;-66
2022/08/02 10:56:54;;;;;;;4.40;1.88;;;;;;;25.14;43.54;101620.38;4990836;28;20409;-66
2022/08/02 10:59:26;;;;;;;4.13;1.75;;;;;;;25.23;42.83;101625.50;4991112;28;20459;-67
2022/08/02 11:02:00;;;;;;;5.68;2.00;;;;;;;25.32;42.40;101616.41;4991007;28;20037;-66
2022/08/02 11:04:30;;;;;;;4.05;1.60;;;;;;;25.37;42.26;101617.16;4991411;28;20026;-66
2022/08/02 11:07:16;;;;;;;4.65;1.98;;;;;;;25.47;43.48;101621.31;4989004;28;20026;-66
2022/08/02 11:09:43;;;;;;;7.50;2.05;;;;;;;25.55;42.27;101618.47;4989483;28;20121;-66
2022/08/02 11:12:12;;;;;;;4.82;1.70;;;;;;;25.61;41.53;101622.78;4990937;28;20022;-67
2022/08/02 11:14:56;;;;;;;3.78;1.60;;;;;;;25.68;42.15;101619.88;4990778;28;20038;-66
2022/08/02 11:17:22;;;;;;;3.85;1.33;;;;;;;25.75;37.91;101617.94;4989559;28;20073;-66
2022/08/02 11:20:09;;;;;;;8.52;1.98;;;;;;;25.81;41.43;101615.09;4972392;28;20046;-66
2022/08/02 11:22:35;;;;;;;3.97;1.80;;;;;;;25.93;39.69;101615.66;4983272;28;20035;-67
2022/08/02 11:25:22;;;;;;;10.38;1.90;;;;;;;25.99;39.61;101613.69;4978212;28;20061;-67
2022/08/02 11:27:56;;;;;;;3.63;1.65;;;;;;;26.05;39.47;101607.31;4990550;28;20033;-67